HomeShort term forecast

Short term forecast

Graphical weather forecast for the next 48 hours for Montreal:

Short term forecast

This weather forecast is automatically refreshed every 3 hours.

Hourly Experimental Forecast for the next 48 hours

Overall summary: Partly cloudy throughout the day.

 Date & Hour   Temp   Feel   Baro   Hum   Speed & Bearing   Wind Gust   Precip.%   Precip.   Visibility   Cloud cover   Conditions 
 03/07/2020 - 23:00  23.4°C  23.6°C  1012.3 hPa  70%  5.9 km/h   8.7 km/h  4%  0.04 mm/h  16.1km  20%  Clear 
 04/07/2020 - 00:00  22.4°C  22.6°C  1012.3 hPa  75%  5.6 km/h   8.7 km/h  2%  0.02 mm/h  16.1km  14%  Clear 
 04/07/2020 - 01:00  21.7°C  22.0°C  1012.5 hPa  79%  3.9 km/h   7.1 km/h  1%  0.01 mm/h  16.1km  7%  Clear 
 04/07/2020 - 02:00  21.1°C  21.4°C  1012.0 hPa  82%  4.2 km/h   9.5 km/h  1%  0.04 mm/h  16.1km  3%  Clear 
 04/07/2020 - 03:00  20.1°C  20.4°C  1012.2 hPa  84%  4.3 km/h   6.4 km/h  1%  0.04 mm/h  16.1km  1%  Clear 
 04/07/2020 - 04:00  19.2°C  19.4°C  1012.5 hPa  84%  4.1 km/h   6.6 km/h  1%  0.02 mm/h  16.1km  1%  Clear 
 04/07/2020 - 05:00  18.7°C  18.8°C  1012.9 hPa  84%  5.0 km/h   12.1 km/h  1%  0.02 mm/h  16.1km  5%  Clear 
 04/07/2020 - 06:00  19.1°C  19.1°C  1013.0 hPa  78%  5.9 km/h   13.8 km/h  0%  --  16.1km  17%  Clear 
 04/07/2020 - 07:00  20.7°C  20.7°C  1013.2 hPa  71%  7.7 km/h   22.8 km/h  0%  --  16.1km  23%  Clear 
 04/07/2020 - 08:00  22.2°C  22.2°C  1013.8 hPa  63%  8.6 km/h   22.5 km/h  1%  0.04 mm/h  16.1km  22%  Clear 
 04/07/2020 - 09:00  23.8°C  23.8°C  1013.5 hPa  57%  8.7 km/h   18.4 km/h  0%  --  16.1km  8%  Clear 
 04/07/2020 - 10:00  25.3°C  25.3°C  1013.9 hPa  52%  7.6 km/h   14.4 km/h  0%  --  16.1km  16%  Clear 
 04/07/2020 - 11:00  26.5°C  26.5°C  1013.9 hPa  49%  6.9 km/h   13.9 km/h  0%  --  16.1km  34%  Partly Cloudy 
 04/07/2020 - 12:00  27.4°C  27.4°C  1013.6 hPa  44%  6.6 km/h   11.7 km/h  0%  --  16.1km  27%  Clear 
 04/07/2020 - 13:00  28.6°C  28.6°C  1013.3 hPa  42%  6.3 km/h   9.8 km/h  0%  --  16.1km  6%  Clear 
 04/07/2020 - 14:00  29.4°C  29.4°C  1013.0 hPa  38%  7.0 km/h   9.5 km/h  0%  --  16.1km  10%  Clear 
 04/07/2020 - 15:00  29.9°C  29.9°C  1012.6 hPa  38%  9.2 km/h   10.7 km/h  0%  --  16.1km  16%  Clear 
 04/07/2020 - 16:00  29.6°C  29.6°C  1012.2 hPa  39%  12.0 km/h   12.9 km/h  0%  --  16.1km  24%  Clear 
 04/07/2020 - 17:00  29.1°C  29.1°C  1012.0 hPa  42%  13.9 km/h   15.4 km/h  0%  --  16.1km  33%  Partly Cloudy 
 04/07/2020 - 18:00  28.2°C  28.3°C  1012.0 hPa  46%  14.0 km/h   18.1 km/h  0%  --  16.1km  53%  Partly Cloudy 
 04/07/2020 - 19:00  27.2°C  27.6°C  1012.1 hPa  49%  13.2 km/h   20.9 km/h  0%  --  16.1km  76%  Mostly Cloudy 
 04/07/2020 - 20:00  26.1°C  26.2°C  1012.2 hPa  53%  12.3 km/h   22.5 km/h  0%  --  16.1km  90%  Overcast 
 04/07/2020 - 21:00  25.0°C  25.0°C  1012.2 hPa  55%  11.6 km/h   22.5 km/h  0%  --  16.1km  87%  Mostly Cloudy 
 04/07/2020 - 22:00  23.6°C  23.6°C  1012.5 hPa  56%  10.9 km/h   21.3 km/h  0%  --  16.1km  75%  Mostly Cloudy 
 04/07/2020 - 23:00  22.4°C  22.4°C  1012.6 hPa  56%  10.1 km/h   19.5 km/h  0%  --  16.1km  62%  Mostly Cloudy 
 05/07/2020 - 00:00  21.4°C  21.4°C  1012.5 hPa  58%  9.3 km/h   16.5 km/h  0%  --  16.1km  52%  Partly Cloudy 
 05/07/2020 - 01:00  20.4°C  20.4°C  1012.2 hPa  61%  8.5 km/h   12.8 km/h  0%  --  16.1km  40%  Partly Cloudy 
 05/07/2020 - 02:00  19.6°C  19.6°C  1012.2 hPa  64%  8.0 km/h   10.3 km/h  0%  --  16.1km  30%  Clear 
 05/07/2020 - 03:00  18.6°C  18.6°C  1011.9 hPa  68%  7.7 km/h   9.9 km/h  0%  --  16.1km  27%  Clear 
 05/07/2020 - 04:00  17.7°C  17.7°C  1011.3 hPa  72%  7.7 km/h   10.7 km/h  0%  --  16.1km  29%  Clear 
 05/07/2020 - 05:00  17.3°C  17.3°C  1011.8 hPa  76%  7.7 km/h   11.9 km/h  0%  --  16.1km  31%  Clear 
 05/07/2020 - 06:00  18.0°C  18.0°C  1011.8 hPa  76%  7.8 km/h   14.1 km/h  0%  --  16.1km  32%  Partly Cloudy 
 05/07/2020 - 07:00  19.2°C  19.2°C  1012.1 hPa  75%  7.9 km/h   16.6 km/h  0%  --  16.1km  33%  Partly Cloudy 
 05/07/2020 - 08:00  20.4°C  20.4°C  1012.2 hPa  72%  7.6 km/h   17.3 km/h  0%  --  16.1km  36%  Partly Cloudy 
 05/07/2020 - 09:00  21.7°C  21.7°C  1012.2 hPa  69%  6.0 km/h   14.6 km/h  1%  0.01 mm/h  16.1km  40%  Partly Cloudy 
 05/07/2020 - 10:00  22.9°C  22.9°C  1012.0 hPa  65%  4.1 km/h   10.2 km/h  1%  0.01 mm/h  16.1km  45%  Partly Cloudy 
 05/07/2020 - 11:00  24.0°C  24.1°C  1012.0 hPa  61%  3.6 km/h   7.3 km/h  1%  0.02 mm/h  16.1km  46%  Partly Cloudy 
 05/07/2020 - 12:00  25.0°C  25.1°C  1011.8 hPa  57%  5.9 km/h   7.6 km/h  1%  0.01 mm/h  16.1km  49%  Partly Cloudy 
 05/07/2020 - 13:00  26.1°C  26.1°C  1011.7 hPa  53%  9.5 km/h   9.6 km/h  1%  0.01 mm/h  16.1km  51%  Partly Cloudy 
 05/07/2020 - 14:00  26.9°C  27.3°C  1011.7 hPa  49%  12.3 km/h   12.3 km/h  0%  --  16.1km  52%  Partly Cloudy 
 05/07/2020 - 15:00  27.2°C  27.4°C  1011.8 hPa  47%  13.4 km/h   13.4 km/h  0%  --  16.1km  51%  Partly Cloudy 
 05/07/2020 - 16:00  26.7°C  26.7°C  1012.3 hPa  48%  13.6 km/h   13.6 km/h  0%  --  16.1km  50%  Partly Cloudy 
 05/07/2020 - 17:00  26.1°C  26.1°C  1012.9 hPa  50%  13.2 km/h   13.2 km/h  0%  --  16.1km  46%  Partly Cloudy 
 05/07/2020 - 18:00  25.5°C  25.5°C  1013.3 hPa  52%  11.9 km/h   12.6 km/h  0%  --  16.1km  40%  Partly Cloudy 
 05/07/2020 - 19:00  25.1°C  25.1°C  1013.8 hPa  53%  10.0 km/h   12.9 km/h  0%  --  16.1km  29%  Clear 
 05/07/2020 - 20:00  24.3°C  24.3°C  1014.2 hPa  56%  8.3 km/h   13.1 km/h  0%  --  16.1km  19%  Clear 
 05/07/2020 - 21:00  23.0°C  23.0°C  1014.4 hPa  60%  7.0 km/h   13.6 km/h  0%  --  16.1km  11%  Clear 
 05/07/2020 - 22:00  21.4°C  21.4°C  1014.9 hPa  67%  6.0 km/h   14.0 km/h  0%  --  16.1km  5%  Clear 

 

Past weather and reports

Past weatherFind in this section the past weather conditions, weather archive, graphics, reports and statistics.

Current conditions

Current weather condition for MontrealAll you need to know about the current weather conditions for Montreal. Weather data is updated every 10 minutes.

Weather forecast

Current Montreal weatherSince 2004, celinium.com website has provided accurate weather forecast for Montreal's island.